Time;durP1;ratioP1;P1;durP2;ratioP2;P2;SDS_P1;SDS_P2;PMS_P1;PMS_P2;Temp;Humidity;BMP_temperature;BMP_pressure;BME280_temperature;BME280_humidity;BME280_pressure;Samples;Min_cycle;Max_cycle;Signal;HPM_P1;HPM_P2
2022/02/23 00:02:38;;;;;;;;;6.25;4.75;;;;;14.98;43.80;98283.16;4962422;28;103610;-75
2022/02/23 00:05:11;;;;;;;;;5.00;4.50;;;;;14.97;43.81;98276.03;4935809;28;102943;-74
2022/02/23 00:07:38;;;;;;;;;5.00;5.00;;;;;14.94;43.94;98262.91;4957372;28;102617;-74
2022/02/23 00:10:06;;;;;;;;;5.00;4.50;;;;;14.94;43.78;98259.34;4936665;28;104069;-74
2022/02/23 00:12:34;;;;;;;;;5.75;4.00;;;;;14.93;43.89;98254.97;4956319;28;103842;-74
2022/02/23 00:15:01;;;;;;;;;6.25;5.00;;;;;14.93;43.54;98252.25;4953894;28;103611;-74
2022/02/23 00:17:28;;;;;;;;;6.75;5.00;;;;;14.91;43.86;98252.47;4961500;28;102724;-74
2022/02/23 00:19:55;;;;;;;;;4.25;4.25;;;;;14.89;43.85;98253.78;4954659;28;104109;-74
2022/02/23 00:22:23;;;;;;;;;4.25;3.25;;;;;14.89;43.46;98253.78;4934891;28;103293;-74
2022/02/23 00:24:50;;;;;;;;;6.75;5.75;;;;;14.87;43.36;98251.28;4954378;28;102629;-74
2022/02/23 00:27:17;;;;;;;;;6.00;5.00;;;;;14.85;43.53;98241.72;4951011;28;102394;-74
2022/02/23 00:29:44;;;;;;;;;5.00;5.00;;;;;14.84;43.57;98246.34;4951870;28;104125;-74
2022/02/23 00:32:11;;;;;;;;;6.75;5.00;;;;;14.85;43.49;98242.56;4952529;28;103265;-74
2022/02/23 00:34:38;;;;;;;;;6.00;5.75;;;;;14.84;43.83;98240.88;4949181;28;102493;-74
2022/02/23 00:37:05;;;;;;;;;7.50;6.00;;;;;14.83;43.60;98238.38;4936497;28;102498;-74
2022/02/23 00:39:32;;;;;;;;;3.50;3.50;;;;;14.84;43.78;98235.44;4932524;28;104142;-74
2022/02/23 00:42:00;;;;;;;;;6.75;5.00;;;;;14.82;43.66;98229.41;4951121;28;103105;-74
2022/02/23 00:44:28;;;;;;;;;4.00;4.00;;;;;14.82;43.39;98231.28;4950333;28;102428;-75
2022/02/23 00:46:55;;;;;;;;;4.00;4.00;;;;;14.82;43.52;98232.13;4938406;28;102741;-74
2022/02/23 00:49:23;;;;;;;;;7.75;4.75;;;;;14.80;43.19;98228.00;4957246;28;104066;-74
2022/02/23 00:51:50;;;;;;;;;5.50;3.50;;;;;14.78;43.21;98217.31;4951767;28;102521;-74
2022/02/23 00:54:18;;;;;;;;;4.00;4.00;;;;;14.79;43.59;98216.28;4950160;28;104311;-75
2022/02/23 00:56:46;;;;;;;;;6.75;5.50;;;;;14.79;43.38;98213.53;4962669;28;104054;-75
2022/02/23 00:59:13;;;;;;;;;3.75;2.50;;;;;14.78;43.53;98214.59;4948448;28;103876;-74
2022/02/23 01:01:40;;;;;;;;;5.00;4.75;;;;;14.78;43.51;98202.88;4935766;28;102710;-74
2022/02/23 01:04:08;;;;;;;;;5.00;4.25;;;;;14.72;43.68;98204.69;4948901;28;103724;-74
2022/02/23 01:06:35;;;;;;;;;5.75;3.75;;;;;14.72;43.15;98200.03;4932676;28;106143;-74
2022/02/23 01:09:03;;;;;;;;;3.00;3.00;;;;;14.72;42.99;98185.63;4944810;28;104057;-75
2022/02/23 01:11:30;;;;;;;;;3.00;3.00;;;;;14.72;43.20;98182.91;4949137;28;103481;-74
2022/02/23 01:13:57;;;;;;;;;6.00;4.25;;;;;14.72;43.67;98185.63;4938511;28;104131;-74
2022/02/23 01:16:25;;;;;;;;;4.00;4.00;;;;;14.71;43.54;98184.81;4928303;28;105728;-74
2022/02/23 01:18:52;;;;;;;;;6.25;4.50;;;;;14.71;43.66;98183.97;4959729;28;104442;-75
2022/02/23 01:21:19;;;;;;;;;3.75;3.75;;;;;14.70;43.43;98185.03;4947907;28;102511;-75
2022/02/23 01:23:46;;;;;;;;;4.00;3.00;;;;;14.71;43.36;98186.69;4951424;28;103165;-74
2022/02/23 01:26:13;;;;;;;;;4.50;4.00;;;;;14.68;43.42;98192.59;4928564;28;102701;-75
2022/02/23 01:28:41;;;;;;;;;3.50;3.50;;;;;14.67;43.26;98190.97;4949804;28;103163;-75
2022/02/23 01:31:08;;;;;;;;;4.75;4.00;;;;;14.66;43.10;98189.28;4952900;28;102543;-74
2022/02/23 01:33:36;;;;;;;;;4.00;3.50;;;;;14.67;43.26;98188.25;4950791;28;102632;-75
2022/02/23 01:36:03;;;;;;;;;5.75;4.00;;;;;14.66;43.52;98184.69;4931263;28;102451;-75
2022/02/23 01:38:30;;;;;;;;;2.25;2.00;;;;;14.64;42.99;98184.09;4949572;28;104390;-74
2022/02/23 01:40:58;;;;;;;;;4.25;3.25;;;;;14.65;43.58;98171.31;4954646;28;102598;-75
2022/02/23 01:43:25;;;;;;;;;2.75;2.75;;;;;14.62;42.87;98169.06;4933530;28;102681;-74
2022/02/23 01:45:52;;;;;;;;;3.00;3.00;;;;;14.61;43.27;98165.50;4949225;28;102569;-74
2022/02/23 01:48:19;;;;;;;;;3.25;3.25;;;;;14.58;43.12;98166.00;4949334;28;105283;-74
2022/02/23 01:50:46;;;;;;;;;4.75;3.50;;;;;14.59;43.21;98155.94;4936643;28;102965;-75
2022/02/23 01:53:14;;;;;;;;;4.00;3.25;;;;;14.58;42.85;98144.25;4940082;28;102543;-75
2022/02/23 01:55:41;;;;;;;;;4.25;4.00;;;;;14.59;43.08;98145.06;4955361;28;102537;-74
2022/02/23 01:58:08;;;;;;;;;4.75;4.00;;;;;14.58;43.25;98140.69;4923760;28;104223;-74
2022/02/23 02:00:35;;;;;;;;;4.25;4.00;;;;;14.58;43.50;98138.78;4957381;28;102498;-74
2022/02/23 02:03:02;;;;;;;;;4.50;4.00;;;;;14.58;42.95;98149.69;4938109;28;111586;-75
2022/02/23 02:05:29;;;;;;;;;4.25;3.50;;;;;14.57;42.75;98128.97;4903733;28;105244;-74
2022/02/23 02:07:56;;;;;;;;;4.00;3.75;;;;;14.57;42.78;98130.84;4907291;28;104116;-74
2022/02/23 02:10:23;;;;;;;;;2.75;2.25;;;;;14.58;42.88;98127.06;4925388;28;102484;-74
2022/02/23 02:12:51;;;;;;;;;7.25;5.25;;;;;14.56;42.98;98126.47;4905508;28;102575;-74
2022/02/23 02:15:19;;;;;;;;;3.00;3.00;;;;;14.56;42.90;98129.19;4937298;28;104008;-75
2022/02/23 02:17:46;;;;;;;;;4.00;3.00;;;;;14.55;42.73;98127.53;4943707;28;104255;-74
2022/02/23 02:20:13;;;;;;;;;4.50;3.50;;;;;14.53;42.88;98124.25;4950316;28;103187;-74
2022/02/23 02:22:41;;;;;;;;;2.50;2.00;;;;;14.53;42.88;98126.97;4945359;28;102531;-74
2022/02/23 02:25:08;;;;;;;;;2.50;2.00;;;;;14.52;42.86;98128.03;4934144;28;102624;-75
2022/02/23 02:27:35;;;;;;;;;1.75;1.75;;;;;14.51;43.54;98129.06;4944906;28;108845;-75
2022/02/23 02:30:03;;;;;;;;;4.00;4.00;;;;;14.50;42.83;98132.88;4950556;28;102661;-74
2022/02/23 02:32:31;;;;;;;;;3.25;3.00;;;;;14.49;42.96;98133.94;4958823;28;103070;-75
2022/02/23 02:34:58;;;;;;;;;5.00;3.75;;;;;14.47;43.04;98130.63;4950066;28;102508;-74
2022/02/23 02:37:25;;;;;;;;;3.00;3.00;;;;;14.48;42.98;98129.56;4919833;28;104040;-74
2022/02/23 02:39:56;;;;;;;;;3.00;3.00;;;;;14.48;43.22;98116.78;4932570;28;102433;-75
2022/02/23 02:42:23;;;;;;;;;4.00;3.50;;;;;14.48;43.00;98129.56;4938349;28;102529;-74
2022/02/23 02:44:51;;;;;;;;;2.00;2.00;;;;;14.49;42.90;98125.78;4940129;28;104743;-75
2022/02/23 02:47:21;;;;;;;;;3.00;3.00;;;;;14.47;43.05;98125.19;4939202;28;104860;-74
2022/02/23 02:49:48;;;;;;;;;4.00;4.00;;;;;14.46;42.66;98128.97;4949088;28;102278;-74
2022/02/23 02:52:15;;;;;;;;;5.25;3.50;;;;;14.45;42.78;98124.59;4943784;28;102473;-74
2022/02/23 02:54:42;;;;;;;;;4.00;3.00;;;;;14.46;43.13;98121.63;4956382;28;104843;-75
2022/02/23 02:57:09;;;;;;;;;5.00;3.75;;;;;14.45;43.22;98130.03;4948508;28;104107;-75
2022/02/23 02:59:36;;;;;;;;;2.00;2.00;;;;;14.44;43.25;98125.66;4957236;28;102451;-75
2022/02/23 03:02:04;;;;;;;;;3.50;3.00;;;;;14.43;43.24;98134.88;4946963;28;102507;-75
2022/02/23 03:04:32;;;;;;;;;3.00;3.00;;;;;14.42;43.35;98128.59;4949948;28;105721;-75
2022/02/23 03:07:02;;;;;;;;;3.00;3.00;;;;;14.42;42.60;98136.78;4943621;28;104282;-75
2022/02/23 03:09:29;;;;;;;;;2.75;2.50;;;;;14.41;42.57;98132.38;4946024;28;104090;-75
2022/02/23 03:11:56;;;;;;;;;3.00;3.00;;;;;14.40;42.80;98124.50;4941649;28;102448;-75
2022/02/23 03:14:23;;;;;;;;;3.25;2.75;;;;;14.39;43.38;98123.66;4948486;28;102457;-74
2022/02/23 03:16:50;;;;;;;;;4.00;3.00;;;;;14.41;42.98;98123.44;4954517;28;103927;-74
2022/02/23 03:19:17;;;;;;;;;3.00;2.25;;;;;14.40;43.36;98121.75;4947246;28;102559;-75
2022/02/23 03:21:44;;;;;;;;;3.50;3.00;;;;;14.40;42.99;98119.03;4945534;28;102509;-75
2022/02/23 03:24:11;;;;;;;;;3.00;2.00;;;;;14.39;43.30;98117.38;4963050;28;102367;-74
2022/02/23 03:26:41;;;;;;;;;3.00;2.75;;;;;14.40;43.22;98119.03;4947333;28;109079;-74
2022/02/23 03:29:08;;;;;;;;;3.50;2.75;;;;;14.39;42.97;98128.25;4958671;28;102398;-74
2022/02/23 03:31:35;;;;;;;;;2.50;2.50;;;;;14.38;42.76;98129.31;4939013;28;102471;-75
2022/02/23 03:34:01;;;;;;;;;2.25;2.00;;;;;14.38;42.96;98122.00;4959451;28;103690;-74
2022/02/23 03:36:29;;;;;;;;;2.50;2.50;;;;;14.39;42.74;98130.97;4955444;28;104432;-74
2022/02/23 03:38:56;;;;;;;;;3.00;2.50;;;;;14.40;42.79;98124.50;4956204;28;102497;-75
2022/02/23 03:41:23;;;;;;;;;3.00;3.00;;;;;14.40;43.15;98129.94;4956845;28;102580;-74
2022/02/23 03:43:50;;;;;;;;;3.00;2.50;;;;;14.42;42.91;98144.09;4948106;28;102461;-74
2022/02/23 03:46:17;;;;;;;;;2.00;1.50;;;;;14.44;42.70;98155.59;4964643;28;104054;-75
2022/02/23 03:48:44;;;;;;;;;3.00;2.25;;;;;14.45;42.59;98154.53;4959753;28;102586;-75
2022/02/23 03:51:13;;;;;;;;;1.75;1.75;;;;;14.41;43.27;98158.78;4952449;28;102561;-74
2022/02/23 03:53:41;;;;;;;;;4.75;3.00;;;;;14.36;42.82;98153.22;4958684;28;102611;-74
2022/02/23 03:56:38;;;;;;;;;2.00;2.00;;;;;14.38;42.79;98153.81;4952674;28;109134;-75
2022/02/23 03:58:55;;;;;;;;;3.00;3.00;;;;;14.37;42.46;98163.00;4952032;28;103643;-75
2022/02/23 04:01:22;;;;;;;;;2.25;2.00;;;;;14.36;42.91;98162.22;4952952;28;102588;-75
2022/02/23 04:03:49;;;;;;;;;2.25;2.25;;;;;14.36;42.70;98156.78;4949831;28;102435;-75
2022/02/23 04:06:16;;;;;;;;;4.00;2.00;;;;;14.37;42.46;98163.84;4956245;28;103156;-75
2022/02/23 04:08:43;;;;;;;;;2.00;2.00;;;;;14.37;43.01;98168.47;4955107;28;102165;-74
2022/02/23 04:11:10;;;;;;;;;2.75;2.00;;;;;14.36;43.04;98173.09;4944443;28;102897;-74
2022/02/23 04:13:37;;;;;;;;;2.50;2.25;;;;;14.35;42.52;98165.97;4951051;28;105154;-74
2022/02/23 04:16:04;;;;;;;;;4.75;3.50;;;;;14.34;43.40;98175.19;4949670;28;104554;-75
2022/02/23 04:18:31;;;;;;;;;1.50;1.50;;;;;14.34;42.67;98175.19;4955921;28;102266;-74
2022/02/23 04:20:58;;;;;;;;;2.25;2.00;;;;;14.35;42.93;98178.72;4952751;28;105306;-75
2022/02/23 04:23:25;;;;;;;;;3.25;2.00;;;;;14.34;42.92;98174.34;4957234;28;102725;-74
2022/02/23 04:25:52;;;;;;;;;3.00;2.50;;;;;14.32;42.77;98169.97;4951508;28;104077;-74
